createdAt,value
2023-04-07T00:00:05.989Z,13.18
2023-04-07T00:05:07.594Z,13.60
2023-04-07T00:10:09.490Z,13.30
2023-04-07T00:15:11.016Z,12.75
2023-04-07T00:20:12.634Z,13.75
2023-04-07T00:25:14.205Z,14.38
2023-04-07T00:30:15.708Z,15.13
2023-04-07T00:35:17.905Z,13.27
2023-04-07T00:40:19.339Z,13.80
2023-04-07T00:45:20.730Z,11.70
2023-04-07T00:50:22.111Z,12.32
2023-04-07T00:55:24.405Z,13.32
2023-04-07T01:00:27.971Z,15.00
2023-04-07T01:05:42.583Z,13.10
2023-04-07T01:11:00.797Z,12.80
2023-04-07T01:16:06.086Z,13.02
2023-04-07T01:21:13.975Z,13.57
2023-04-07T01:26:32.143Z,11.85
2023-04-07T01:31:34.963Z,11.32
2023-04-07T01:36:36.829Z,13.23
2023-04-07T01:41:39.978Z,11.63
2023-04-07T01:46:41.336Z,11.65
2023-04-07T01:51:43.378Z,11.38
2023-04-07T01:56:45.652Z,11.35
2023-04-07T02:01:48.327Z,11.57
2023-04-07T02:06:54.791Z,12.35
2023-04-07T02:11:59.867Z,10.98
2023-04-07T02:17:02.218Z,11.85
2023-04-07T02:22:05.470Z,11.15
2023-04-07T02:27:06.864Z,11.80
2023-04-07T02:32:08.403Z,11.60
2023-04-07T02:37:09.869Z,10.90
2023-04-07T02:42:11.262Z,11.45
2023-04-07T02:47:12.609Z,11.25
2023-04-07T02:52:14.013Z,11.15
2023-04-07T02:57:15.561Z,10.55
2023-04-07T03:02:17.245Z,12.55
2023-04-07T03:07:19.006Z,10.18
2023-04-07T03:12:20.668Z,10.00
2023-04-07T03:17:22.068Z,10.15
2023-04-07T03:22:23.379Z,10.27
2023-04-07T03:27:24.680Z,10.45
2023-04-07T03:32:26.152Z,10.65
2023-04-07T03:37:27.551Z,9.93
2023-04-07T03:42:28.914Z,10.63
2023-04-07T03:47:30.553Z,10.02
2023-04-07T03:52:32.021Z,11.50
2023-04-07T03:57:33.488Z,11.85
2023-04-07T04:02:34.960Z,11.13
2023-04-07T04:07:36.414Z,11.55
2023-04-07T04:12:37.806Z,11.55
2023-04-07T04:17:39.194Z,11.95
2023-04-07T04:22:40.554Z,11.02
2023-04-07T04:27:41.979Z,12.63
2023-04-07T04:32:43.644Z,11.90
2023-04-07T04:37:45.299Z,12.82
2023-04-07T04:42:46.723Z,12.00
2023-04-07T04:47:48.140Z,11.63
2023-04-07T04:52:49.609Z,11.18
2023-04-07T04:57:51.023Z,11.18
2023-04-07T05:02:52.445Z,10.80
2023-04-07T05:07:54.039Z,10.98
2023-04-07T05:12:56.118Z,10.73
2023-04-07T05:17:57.761Z,10.93
2023-04-07T05:22:59.192Z,11.20
2023-04-07T05:28:00.590Z,11.07
2023-04-07T05:33:01.978Z,12.48
2023-04-07T05:38:03.489Z,10.68
2023-04-07T05:43:04.875Z,12.52
2023-04-07T05:48:06.617Z,11.98
2023-04-07T05:53:07.949Z,11.75
2023-04-07T05:58:09.340Z,12.75
2023-04-07T06:03:10.973Z,11.30
2023-04-07T06:08:12.459Z,12.10
2023-04-07T06:13:13.900Z,11.23
2023-04-07T06:18:15.588Z,11.05
2023-04-07T06:23:16.962Z,11.38
2023-04-07T06:28:18.647Z,11.10
2023-04-07T06:33:23.868Z,12.65
2023-04-07T06:38:25.644Z,11.32
2023-04-07T06:43:27.058Z,11.95
2023-04-07T06:48:28.450Z,11.48
2023-04-07T06:53:29.893Z,11.35
2023-04-07T06:58:31.389Z,11.48
2023-04-07T07:03:33.566Z,11.63
2023-04-07T07:08:35.387Z,12.38
2023-04-07T07:13:37.352Z,12.27
2023-04-07T07:18:38.777Z,11.65
2023-04-07T07:23:40.302Z,12.68
2023-04-07T07:28:41.783Z,11.93
2023-04-07T07:33:45.932Z,11.25
2023-04-07T07:38:50.557Z,11.30
2023-04-07T07:43:52.017Z,13.18
2023-04-07T07:48:53.786Z,21.27
2023-04-07T07:53:55.571Z,16.95
2023-04-07T07:58:58.274Z,15.80
2023-04-07T08:03:59.939Z,50.40
2023-04-07T08:09:01.344Z,19.98
2023-04-07T08:14:02.750Z,14.45
2023-04-07T08:19:04.068Z,11.98
2023-04-07T08:24:06.026Z,11.82
2023-04-07T08:29:07.334Z,11.68
2023-04-07T08:34:08.649Z,11.35
2023-04-07T08:39:10.041Z,10.43
2023-04-07T08:44:11.476Z,10.85
2023-04-07T08:49:15.454Z,10.30
2023-04-07T08:54:22.072Z,10.80
2023-04-07T08:59:28.433Z,11.88
2023-04-07T09:04:29.869Z,11.50
2023-04-07T09:09:31.170Z,11.95
2023-04-07T09:14:32.775Z,10.68
2023-04-07T09:19:34.284Z,12.77
2023-04-07T09:24:35.605Z,11.32
2023-04-07T09:29:37.657Z,12.52
2023-04-07T09:34:41.545Z,11.25
2023-04-07T09:39:51.903Z,11.87
2023-04-07T09:44:53.317Z,12.18
2023-04-07T09:49:56.250Z,12.07
2023-04-07T09:54:58.022Z,12.70
2023-04-07T09:59:59.455Z,11.82
2023-04-07T10:05:01.174Z,13.18
2023-04-07T10:10:07.949Z,11.60
2023-04-07T10:15:13.552Z,12.48
2023-04-07T10:20:17.474Z,12.80
2023-04-07T10:25:22.710Z,10.83
2023-04-07T10:30:27.950Z,14.55
2023-04-07T10:36:08.527Z,14.45
2023-04-07T10:41:36.359Z,13.35
2023-04-07T10:46:51.805Z,11.93
2023-04-07T10:52:11.255Z,12.60
2023-04-07T10:57:14.593Z,12.80
2023-04-07T11:02:25.385Z,12.02
2023-04-07T11:07:47.207Z,11.93
2023-04-07T11:12:59.689Z,11.07
2023-04-07T11:18:10.514Z,11.95
2023-04-07T11:23:12.173Z,10.90
2023-04-07T11:28:14.451Z,11.95
2023-04-07T11:33:20.521Z,10.30
2023-04-07T11:38:23.904Z,11.63
2023-04-07T11:43:27.433Z,10.90
2023-04-07T11:48:30.478Z,10.02
2023-04-07T11:53:39.934Z,12.00
2023-04-07T11:58:47.755Z,11.77
2023-04-07T12:04:01.872Z,10.35
2023-04-07T12:09:05.795Z,7.78
2023-04-07T12:14:08.825Z,7.45
2023-04-07T12:19:10.299Z,7.15
2023-04-07T12:24:11.826Z,8.27
2023-04-07T12:29:13.676Z,8.38
2023-04-07T12:34:14.990Z,7.50
2023-04-07T12:39:16.854Z,8.57
2023-04-07T12:44:18.442Z,8.07
2023-04-07T12:49:19.780Z,7.65
2023-04-07T12:54:21.283Z,9.10
2023-04-07T12:59:24.548Z,5.85
2023-04-07T13:04:26.962Z,6.15
2023-04-07T13:09:28.511Z,5.97
2023-04-07T13:14:30.302Z,5.65
2023-04-07T13:19:31.802Z,6.65
2023-04-07T13:24:33.358Z,5.95
2023-04-07T13:29:34.729Z,5.93
2023-04-07T13:34:37.492Z,5.65
2023-04-07T13:39:38.826Z,4.90
2023-04-07T13:44:40.854Z,4.78
2023-04-07T13:49:42.211Z,3.60
2023-04-07T13:54:44.065Z,4.25
2023-04-07T13:59:45.912Z,3.28
2023-04-07T14:04:47.306Z,7.40
2023-04-07T14:09:49.068Z,3.67
2023-04-07T14:14:52.247Z,3.03
2023-04-07T14:19:54.311Z,4.00
2023-04-07T14:24:56.153Z,4.95
2023-04-07T14:29:59.398Z,4.13
2023-04-07T14:35:01.106Z,4.00
2023-04-07T14:40:03.603Z,4.72
2023-04-07T14:45:05.390Z,3.42
2023-04-07T14:50:07.329Z,3.72
2023-04-07T14:55:08.857Z,2.22
2023-04-07T15:00:10.730Z,3.28
2023-04-07T15:05:12.218Z,2.78
2023-04-07T15:10:13.591Z,2.55
2023-04-07T15:15:15.744Z,2.03
2023-04-07T15:20:17.147Z,3.85
2023-04-07T15:25:18.570Z,0.88
2023-04-07T15:30:20.164Z,1.70
2023-04-07T15:35:21.472Z,1.17
2023-04-07T15:40:23.039Z,1.50
2023-04-07T15:45:24.423Z,1.35
2023-04-07T15:50:27.163Z,1.77
2023-04-07T15:55:28.546Z,1.17
2023-04-07T16:00:33.371Z,0.93
2023-04-07T16:05:35.243Z,2.80
2023-04-07T16:10:36.640Z,2.55
2023-04-07T16:15:41.223Z,2.80
2023-04-07T16:20:43.251Z,4.50
2023-04-07T16:25:44.675Z,3.63
2023-04-07T16:30:46.051Z,3.33
2023-04-07T16:35:47.447Z,2.38
2023-04-07T16:41:02.850Z,2.40
2023-04-07T16:46:06.083Z,2.92
2023-04-07T16:51:07.649Z,1.65
2023-04-07T16:56:19.567Z,1.83
2023-04-07T17:01:21.262Z,3.63
2023-04-07T17:06:23.310Z,1.70
2023-04-07T17:11:24.621Z,1.70
2023-04-07T17:16:26.175Z,2.00
2023-04-07T17:21:27.722Z,1.48
2023-04-07T17:26:29.180Z,1.73
2023-04-07T17:31:31.840Z,2.03
2023-04-07T17:36:33.746Z,1.15
2023-04-07T17:41:35.388Z,1.80
2023-04-07T17:46:36.788Z,1.90
2023-04-07T17:51:38.173Z,2.13
2023-04-07T17:56:39.865Z,1.80
2023-04-07T18:01:41.274Z,1.70
2023-04-07T18:06:42.724Z,1.92
2023-04-07T18:11:44.108Z,2.20
2023-04-07T18:16:45.515Z,3.25
2023-04-07T18:21:47.137Z,2.28
2023-04-07T18:26:48.497Z,2.90
2023-04-07T18:31:49.975Z,3.63
2023-04-07T18:36:51.704Z,2.25
2023-04-07T18:41:53.139Z,2.58
2023-04-07T18:46:54.578Z,2.60
2023-04-07T18:51:55.985Z,2.47
2023-04-07T18:56:57.919Z,1.77
2023-04-07T19:01:59.409Z,2.97
2023-04-07T19:07:00.886Z,2.08
2023-04-07T19:12:02.383Z,1.70
2023-04-07T19:17:03.807Z,2.00
2023-04-07T19:22:05.151Z,2.40
2023-04-07T19:27:07.158Z,2.42
2023-04-07T19:32:08.899Z,2.30
2023-04-07T19:37:10.279Z,2.30
2023-04-07T19:42:11.744Z,2.58
2023-04-07T19:47:13.247Z,2.58
2023-04-07T19:52:14.591Z,2.70
2023-04-07T19:57:16.393Z,2.65
2023-04-07T20:02:18.017Z,2.33
2023-04-07T20:07:19.481Z,2.42
2023-04-07T20:12:21.025Z,2.13
2023-04-07T20:17:23.499Z,2.50
2023-04-07T20:22:24.882Z,2.47
2023-04-07T20:27:27.101Z,2.10
2023-04-07T20:32:28.744Z,2.08
2023-04-07T20:37:30.202Z,1.90
2023-04-07T20:42:31.653Z,2.58
2023-04-07T20:47:35.825Z,2.10
2023-04-07T20:52:40.049Z,1.75
2023-04-07T20:57:41.817Z,2.13
2023-04-07T21:02:43.336Z,1.83
2023-04-07T21:07:44.818Z,2.20
2023-04-07T21:12:46.237Z,2.67
2023-04-07T21:17:47.675Z,2.25
2023-04-07T21:22:49.010Z,4.82
2023-04-07T21:27:50.613Z,2.63
2023-04-07T21:32:52.991Z,3.33
2023-04-07T21:37:55.081Z,2.95
2023-04-07T21:42:57.526Z,3.75
2023-04-07T21:47:59.020Z,2.85
2023-04-07T21:53:00.553Z,3.13
2023-04-07T21:58:01.852Z,2.92
2023-04-07T22:03:03.683Z,2.53
2023-04-07T22:08:05.277Z,4.40
2023-04-07T22:13:06.601Z,2.53
2023-04-07T22:18:07.925Z,2.50
2023-04-07T22:23:09.287Z,2.42
2023-04-07T22:28:10.870Z,3.08
2023-04-07T22:33:12.220Z,2.67
2023-04-07T22:38:13.653Z,2.90
2023-04-07T22:43:15.427Z,2.63
2023-04-07T22:48:17.477Z,2.97
2023-04-07T22:53:18.776Z,2.05
2023-04-07T22:58:20.210Z,3.10
2023-04-07T23:03:21.719Z,3.35
2023-04-07T23:08:23.196Z,3.25
2023-04-07T23:13:24.614Z,2.53
2023-04-07T23:18:25.934Z,2.65
2023-04-07T23:23:27.602Z,2.20
2023-04-07T23:28:29.012Z,2.78
2023-04-07T23:33:31.644Z,2.13
2023-04-07T23:38:33.107Z,2.17
2023-04-07T23:43:35.122Z,1.80
2023-04-07T23:48:36.695Z,1.63
2023-04-07T23:53:38.131Z,2.10
2023-04-07T23:58:39.582Z,2.28
